sensor_id;sensor_type;location;lat;lon;timestamp;P1;durP1;ratioP1;P2;durP2;ratioP2
5555;SDS011;2801;50.972;7.856;2024-02-21T00:00:55;14.00;;;5.27;;
5555;SDS011;2801;50.972;7.856;2024-02-21T00:03:22;11.57;;;5.50;;
5555;SDS011;2801;50.972;7.856;2024-02-21T00:05:49;12.47;;;5.07;;
5555;SDS011;2801;50.972;7.856;2024-02-21T00:08:16;14.70;;;5.13;;
5555;SDS011;2801;50.972;7.856;2024-02-21T00:10:43;11.63;;;4.90;;
5555;SDS011;2801;50.972;7.856;2024-02-21T00:13:10;19.50;;;5.20;;
5555;SDS011;2801;50.972;7.856;2024-02-21T00:15:37;14.83;;;5.07;;
5555;SDS011;2801;50.972;7.856;2024-02-21T00:18:04;17.92;;;6.00;;
5555;SDS011;2801;50.972;7.856;2024-02-21T00:20:31;16.27;;;5.13;;
5555;SDS011;2801;50.972;7.856;2024-02-21T00:22:58;22.48;;;5.97;;
5555;SDS011;2801;50.972;7.856;2024-02-21T00:25:25;14.40;;;5.30;;
5555;SDS011;2801;50.972;7.856;2024-02-21T00:27:52;13.90;;;5.53;;
5555;SDS011;2801;50.972;7.856;2024-02-21T00:30:20;13.23;;;5.07;;
5555;SDS011;2801;50.972;7.856;2024-02-21T00:32:47;12.20;;;5.53;;
5555;SDS011;2801;50.972;7.856;2024-02-21T00:35:14;14.97;;;5.53;;
5555;SDS011;2801;50.972;7.856;2024-02-21T00:37:41;17.13;;;5.43;;
5555;SDS011;2801;50.972;7.856;2024-02-21T00:40:09;13.03;;;5.53;;
5555;SDS011;2801;50.972;7.856;2024-02-21T00:42:36;10.10;;;5.57;;
5555;SDS011;2801;50.972;7.856;2024-02-21T00:45:03;12.73;;;5.60;;
5555;SDS011;2801;50.972;7.856;2024-02-21T00:47:31;14.27;;;5.70;;
5555;SDS011;2801;50.972;7.856;2024-02-21T00:49:58;15.30;;;5.53;;
5555;SDS011;2801;50.972;7.856;2024-02-21T00:52:25;15.60;;;5.60;;
5555;SDS011;2801;50.972;7.856;2024-02-21T00:54:52;14.77;;;5.77;;
5555;SDS011;2801;50.972;7.856;2024-02-21T00:57:20;17.50;;;5.73;;
5555;SDS011;2801;50.972;7.856;2024-02-21T00:59:47;18.80;;;5.80;;
5555;SDS011;2801;50.972;7.856;2024-02-21T01:02:14;11.23;;;5.43;;
5555;SDS011;2801;50.972;7.856;2024-02-21T01:04:41;15.00;;;5.97;;
5555;SDS011;2801;50.972;7.856;2024-02-21T01:07:08;13.03;;;5.40;;
5555;SDS011;2801;50.972;7.856;2024-02-21T01:09:35;13.13;;;5.40;;
5555;SDS011;2801;50.972;7.856;2024-02-21T01:12:02;12.40;;;5.57;;
5555;SDS011;2801;50.972;7.856;2024-02-21T01:14:30;15.33;;;5.37;;
5555;SDS011;2801;50.972;7.856;2024-02-21T01:16:57;14.83;;;6.30;;
5555;SDS011;2801;50.972;7.856;2024-02-21T01:19:24;15.57;;;5.60;;
5555;SDS011;2801;50.972;7.856;2024-02-21T01:21:51;15.00;;;5.67;;
5555;SDS011;2801;50.972;7.856;2024-02-21T01:24:18;15.33;;;5.43;;
5555;SDS011;2801;50.972;7.856;2024-02-21T01:26:45;19.03;;;6.07;;
5555;SDS011;2801;50.972;7.856;2024-02-21T01:29:12;13.17;;;5.63;;
5555;SDS011;2801;50.972;7.856;2024-02-21T01:31:39;16.87;;;5.90;;
5555;SDS011;2801;50.972;7.856;2024-02-21T01:34:06;27.70;;;6.70;;
5555;SDS011;2801;50.972;7.856;2024-02-21T01:36:33;21.93;;;6.43;;
5555;SDS011;2801;50.972;7.856;2024-02-21T01:39:00;15.30;;;5.50;;
5555;SDS011;2801;50.972;7.856;2024-02-21T01:41:29;13.47;;;5.50;;
5555;SDS011;2801;50.972;7.856;2024-02-21T01:43:57;12.83;;;5.73;;
5555;SDS011;2801;50.972;7.856;2024-02-21T01:46:24;11.67;;;5.47;;
5555;SDS011;2801;50.972;7.856;2024-02-21T01:48:57;16.03;;;5.80;;
5555;SDS011;2801;50.972;7.856;2024-02-21T01:51:24;14.30;;;6.00;;
5555;SDS011;2801;50.972;7.856;2024-02-21T01:53:52;20.90;;;6.10;;
5555;SDS011;2801;50.972;7.856;2024-02-21T01:56:21;11.13;;;5.40;;
5555;SDS011;2801;50.972;7.856;2024-02-21T01:58:49;13.73;;;5.97;;
5555;SDS011;2801;50.972;7.856;2024-02-21T02:01:17;17.43;;;5.97;;
5555;SDS011;2801;50.972;7.856;2024-02-21T02:03:47;14.43;;;6.17;;
5555;SDS011;2801;50.972;7.856;2024-02-21T02:06:16;13.83;;;5.60;;
5555;SDS011;2801;50.972;7.856;2024-02-21T02:08:43;20.23;;;6.67;;
5555;SDS011;2801;50.972;7.856;2024-02-21T02:11:12;13.37;;;6.07;;
5555;SDS011;2801;50.972;7.856;2024-02-21T02:13:40;16.17;;;6.50;;
5555;SDS011;2801;50.972;7.856;2024-02-21T02:16:07;13.23;;;5.77;;
5555;SDS011;2801;50.972;7.856;2024-02-21T02:18:34;13.13;;;5.30;;
5555;SDS011;2801;50.972;7.856;2024-02-21T02:21:03;15.67;;;6.10;;
5555;SDS011;2801;50.972;7.856;2024-02-21T02:23:40;16.37;;;6.30;;
5555;SDS011;2801;50.972;7.856;2024-02-21T02:26:08;15.00;;;5.90;;
5555;SDS011;2801;50.972;7.856;2024-02-21T02:28:35;18.47;;;6.63;;
5555;SDS011;2801;50.972;7.856;2024-02-21T02:31:03;13.70;;;5.90;;
5555;SDS011;2801;50.972;7.856;2024-02-21T02:33:29;16.93;;;5.93;;
5555;SDS011;2801;50.972;7.856;2024-02-21T02:35:56;16.33;;;6.20;;
5555;SDS011;2801;50.972;7.856;2024-02-21T02:38:25;14.43;;;5.97;;
5555;SDS011;2801;50.972;7.856;2024-02-21T02:40:52;18.00;;;6.20;;
5555;SDS011;2801;50.972;7.856;2024-02-21T02:43:18;19.57;;;6.43;;
5555;SDS011;2801;50.972;7.856;2024-02-21T02:45:45;14.47;;;5.70;;
5555;SDS011;2801;50.972;7.856;2024-02-21T02:48:12;17.30;;;6.63;;
5555;SDS011;2801;50.972;7.856;2024-02-21T02:50:39;12.70;;;6.03;;
5555;SDS011;2801;50.972;7.856;2024-02-21T02:53:06;17.57;;;6.33;;
5555;SDS011;2801;50.972;7.856;2024-02-21T02:55:33;15.80;;;6.33;;
5555;SDS011;2801;50.972;7.856;2024-02-21T02:58:02;15.17;;;6.17;;
5555;SDS011;2801;50.972;7.856;2024-02-21T03:00:29;15.13;;;6.63;;
5555;SDS011;2801;50.972;7.856;2024-02-21T03:02:56;22.17;;;7.40;;
5555;SDS011;2801;50.972;7.856;2024-02-21T03:05:23;16.67;;;6.80;;
5555;SDS011;2801;50.972;7.856;2024-02-21T03:07:50;14.27;;;6.87;;
5555;SDS011;2801;50.972;7.856;2024-02-21T03:10:17;18.47;;;7.40;;
5555;SDS011;2801;50.972;7.856;2024-02-21T03:12:45;24.50;;;7.40;;
5555;SDS011;2801;50.972;7.856;2024-02-21T03:15:13;16.80;;;7.17;;
5555;SDS011;2801;50.972;7.856;2024-02-21T03:17:41;18.67;;;8.33;;
5555;SDS011;2801;50.972;7.856;2024-02-21T03:20:08;14.17;;;6.43;;
5555;SDS011;2801;50.972;7.856;2024-02-21T03:22:38;15.27;;;6.87;;
5555;SDS011;2801;50.972;7.856;2024-02-21T03:25:07;17.53;;;7.30;;
5555;SDS011;2801;50.972;7.856;2024-02-21T03:27:36;17.47;;;6.80;;
5555;SDS011;2801;50.972;7.856;2024-02-21T03:30:03;17.03;;;6.90;;
5555;SDS011;2801;50.972;7.856;2024-02-21T03:32:31;17.70;;;6.73;;
5555;SDS011;2801;50.972;7.856;2024-02-21T03:34:58;16.53;;;6.70;;
5555;SDS011;2801;50.972;7.856;2024-02-21T03:37:25;19.23;;;5.93;;
5555;SDS011;2801;50.972;7.856;2024-02-21T03:39:52;16.17;;;7.63;;
5555;SDS011;2801;50.972;7.856;2024-02-21T03:42:19;18.57;;;6.90;;
5555;SDS011;2801;50.972;7.856;2024-02-21T03:44:46;15.70;;;6.13;;
5555;SDS011;2801;50.972;7.856;2024-02-21T03:47:13;15.47;;;6.23;;
5555;SDS011;2801;50.972;7.856;2024-02-21T03:49:40;15.03;;;6.60;;
5555;SDS011;2801;50.972;7.856;2024-02-21T03:52:07;18.53;;;7.33;;
5555;SDS011;2801;50.972;7.856;2024-02-21T03:54:35;15.83;;;7.10;;
5555;SDS011;2801;50.972;7.856;2024-02-21T03:57:02;17.23;;;6.43;;
5555;SDS011;2801;50.972;7.856;2024-02-21T03:59:29;13.87;;;6.13;;
5555;SDS011;2801;50.972;7.856;2024-02-21T04:01:56;19.00;;;6.20;;
5555;SDS011;2801;50.972;7.856;2024-02-21T04:04:23;13.57;;;6.80;;
5555;SDS011;2801;50.972;7.856;2024-02-21T04:06:50;13.13;;;6.30;;
5555;SDS011;2801;50.972;7.856;2024-02-21T04:09:17;14.77;;;5.93;;
5555;SDS011;2801;50.972;7.856;2024-02-21T04:11:45;19.00;;;7.00;;
5555;SDS011;2801;50.972;7.856;2024-02-21T04:14:12;18.07;;;6.27;;
5555;SDS011;2801;50.972;7.856;2024-02-21T04:16:39;19.07;;;7.10;;
5555;SDS011;2801;50.972;7.856;2024-02-21T04:19:06;17.23;;;6.30;;
5555;SDS011;2801;50.972;7.856;2024-02-21T04:21:34;16.00;;;6.90;;
5555;SDS011;2801;50.972;7.856;2024-02-21T04:24:02;16.37;;;6.37;;
5555;SDS011;2801;50.972;7.856;2024-02-21T04:26:32;12.30;;;5.63;;
5555;SDS011;2801;50.972;7.856;2024-02-21T04:29:00;18.97;;;6.63;;
5555;SDS011;2801;50.972;7.856;2024-02-21T04:31:28;14.90;;;6.33;;
5555;SDS011;2801;50.972;7.856;2024-02-21T04:33:58;14.70;;;5.93;;
5555;SDS011;2801;50.972;7.856;2024-02-21T04:36:25;21.77;;;7.33;;
5555;SDS011;2801;50.972;7.856;2024-02-21T04:38:52;18.57;;;6.17;;
5555;SDS011;2801;50.972;7.856;2024-02-21T04:41:19;18.63;;;6.80;;
5555;SDS011;2801;50.972;7.856;2024-02-21T04:43:46;15.93;;;6.40;;
5555;SDS011;2801;50.972;7.856;2024-02-21T04:46:14;19.57;;;7.10;;
5555;SDS011;2801;50.972;7.856;2024-02-21T04:48:42;15.97;;;6.43;;
5555;SDS011;2801;50.972;7.856;2024-02-21T04:51:11;17.43;;;5.93;;
5555;SDS011;2801;50.972;7.856;2024-02-21T04:53:39;17.43;;;6.83;;
5555;SDS011;2801;50.972;7.856;2024-02-21T04:56:06;16.83;;;6.30;;
5555;SDS011;2801;50.972;7.856;2024-02-21T04:58:33;10.73;;;5.30;;
5555;SDS011;2801;50.972;7.856;2024-02-21T05:01:05;17.23;;;6.83;;
5555;SDS011;2801;50.972;7.856;2024-02-21T05:03:34;18.90;;;6.93;;
5555;SDS011;2801;50.972;7.856;2024-02-21T05:06:01;14.90;;;6.97;;
5555;SDS011;2801;50.972;7.856;2024-02-21T05:08:28;15.47;;;6.33;;
5555;SDS011;2801;50.972;7.856;2024-02-21T05:10:55;16.97;;;6.77;;
5555;SDS011;2801;50.972;7.856;2024-02-21T05:13:22;21.97;;;6.27;;
5555;SDS011;2801;50.972;7.856;2024-02-21T05:15:49;14.57;;;6.07;;
5555;SDS011;2801;50.972;7.856;2024-02-21T05:18:16;17.10;;;6.83;;
5555;SDS011;2801;50.972;7.856;2024-02-21T05:20:43;14.03;;;5.97;;
5555;SDS011;2801;50.972;7.856;2024-02-21T05:23:10;16.23;;;6.20;;
5555;SDS011;2801;50.972;7.856;2024-02-21T05:25:37;16.40;;;5.97;;
5555;SDS011;2801;50.972;7.856;2024-02-21T05:28:04;17.20;;;6.10;;
5555;SDS011;2801;50.972;7.856;2024-02-21T05:30:32;17.17;;;5.60;;
5555;SDS011;2801;50.972;7.856;2024-02-21T05:33:03;16.80;;;6.67;;
5555;SDS011;2801;50.972;7.856;2024-02-21T05:35:32;13.27;;;6.07;;
5555;SDS011;2801;50.972;7.856;2024-02-21T05:38:00;15.70;;;5.47;;
5555;SDS011;2801;50.972;7.856;2024-02-21T05:40:30;14.53;;;5.93;;
5555;SDS011;2801;50.972;7.856;2024-02-21T05:42:57;15.70;;;6.00;;
5555;SDS011;2801;50.972;7.856;2024-02-21T05:45:24;17.93;;;5.93;;
5555;SDS011;2801;50.972;7.856;2024-02-21T05:47:51;15.67;;;5.60;;
5555;SDS011;2801;50.972;7.856;2024-02-21T05:50:18;15.40;;;5.73;;
5555;SDS011;2801;50.972;7.856;2024-02-21T05:52:45;15.20;;;5.70;;
5555;SDS011;2801;50.972;7.856;2024-02-21T05:55:12;13.93;;;5.30;;
5555;SDS011;2801;50.972;7.856;2024-02-21T05:57:40;14.77;;;5.33;;
5555;SDS011;2801;50.972;7.856;2024-02-21T06:00:07;15.27;;;5.73;;
5555;SDS011;2801;50.972;7.856;2024-02-21T06:02:35;10.70;;;5.40;;
5555;SDS011;2801;50.972;7.856;2024-02-21T06:05:02;12.87;;;5.20;;
5555;SDS011;2801;50.972;7.856;2024-02-21T06:07:29;13.27;;;5.03;;
5555;SDS011;2801;50.972;7.856;2024-02-21T06:09:56;15.53;;;5.60;;
5555;SDS011;2801;50.972;7.856;2024-02-21T06:12:23;11.73;;;5.50;;
5555;SDS011;2801;50.972;7.856;2024-02-21T06:14:50;15.63;;;5.13;;
5555;SDS011;2801;50.972;7.856;2024-02-21T06:17:17;11.93;;;4.77;;
5555;SDS011;2801;50.972;7.856;2024-02-21T06:19:44;19.90;;;5.50;;
5555;SDS011;2801;50.972;7.856;2024-02-21T06:22:11;12.77;;;5.03;;
5555;SDS011;2801;50.972;7.856;2024-02-21T06:24:38;17.27;;;5.67;;
5555;SDS011;2801;50.972;7.856;2024-02-21T06:27:05;17.10;;;5.30;;
5555;SDS011;2801;50.972;7.856;2024-02-21T06:29:36;13.60;;;5.47;;
5555;SDS011;2801;50.972;7.856;2024-02-21T06:32:03;15.57;;;6.23;;
5555;SDS011;2801;50.972;7.856;2024-02-21T06:34:31;13.37;;;5.13;;
5555;SDS011;2801;50.972;7.856;2024-02-21T06:37:00;13.23;;;5.10;;
5555;SDS011;2801;50.972;7.856;2024-02-21T06:39:27;15.40;;;5.13;;
5555;SDS011;2801;50.972;7.856;2024-02-21T06:41:55;23.77;;;5.23;;
5555;SDS011;2801;50.972;7.856;2024-02-21T06:44:28;12.07;;;5.10;;
5555;SDS011;2801;50.972;7.856;2024-02-21T06:46:55;14.13;;;5.70;;
5555;SDS011;2801;50.972;7.856;2024-02-21T06:49:22;12.17;;;5.10;;
5555;SDS011;2801;50.972;7.856;2024-02-21T06:51:49;13.23;;;5.07;;
5555;SDS011;2801;50.972;7.856;2024-02-21T06:54:16;13.97;;;5.10;;
5555;SDS011;2801;50.972;7.856;2024-02-21T06:56:44;12.73;;;5.20;;
5555;SDS011;2801;50.972;7.856;2024-02-21T06:59:11;11.97;;;5.07;;
5555;SDS011;2801;50.972;7.856;2024-02-21T07:01:48;14.87;;;4.67;;
5555;SDS011;2801;50.972;7.856;2024-02-21T07:04:20;11.80;;;4.97;;
5555;SDS011;2801;50.972;7.856;2024-02-21T07:06:47;12.93;;;5.20;;
5555;SDS011;2801;50.972;7.856;2024-02-21T07:09:14;14.63;;;5.30;;
5555;SDS011;2801;50.972;7.856;2024-02-21T07:11:40;12.70;;;5.30;;
5555;SDS011;2801;50.972;7.856;2024-02-21T07:14:08;14.63;;;5.63;;
5555;SDS011;2801;50.972;7.856;2024-02-21T07:16:35;14.27;;;5.07;;
5555;SDS011;2801;50.972;7.856;2024-02-21T07:19:02;14.23;;;5.50;;
5555;SDS011;2801;50.972;7.856;2024-02-21T07:21:29;15.00;;;5.50;;
5555;SDS011;2801;50.972;7.856;2024-02-21T07:23:56;19.17;;;5.23;;
5555;SDS011;2801;50.972;7.856;2024-02-21T07:26:23;13.70;;;5.77;;
5555;SDS011;2801;50.972;7.856;2024-02-21T07:28:50;10.60;;;4.73;;
5555;SDS011;2801;50.972;7.856;2024-02-21T07:31:17;11.77;;;5.10;;
5555;SDS011;2801;50.972;7.856;2024-02-21T07:33:44;11.73;;;5.47;;
5555;SDS011;2801;50.972;7.856;2024-02-21T07:36:11;14.57;;;5.50;;
5555;SDS011;2801;50.972;7.856;2024-02-21T07:38:41;13.37;;;5.13;;
5555;SDS011;2801;50.972;7.856;2024-02-21T07:41:08;16.17;;;5.80;;
5555;SDS011;2801;50.972;7.856;2024-02-21T07:43:35;13.13;;;4.50;;
5555;SDS011;2801;50.972;7.856;2024-02-21T07:46:02;17.17;;;5.13;;
5555;SDS011;2801;50.972;7.856;2024-02-21T07:48:29;13.77;;;5.07;;
5555;SDS011;2801;50.972;7.856;2024-02-21T07:51:00;17.67;;;5.10;;
5555;SDS011;2801;50.972;7.856;2024-02-21T07:53:28;17.20;;;5.47;;
5555;SDS011;2801;50.972;7.856;2024-02-21T07:55:55;14.73;;;5.10;;
5555;SDS011;2801;50.972;7.856;2024-02-21T07:58:21;14.43;;;4.80;;
5555;SDS011;2801;50.972;7.856;2024-02-21T08:00:48;16.10;;;5.10;;
5555;SDS011;2801;50.972;7.856;2024-02-21T08:03:16;13.47;;;5.03;;
5555;SDS011;2801;50.972;7.856;2024-02-21T08:05:44;13.83;;;5.40;;
5555;SDS011;2801;50.972;7.856;2024-02-21T08:08:11;13.30;;;5.13;;
5555;SDS011;2801;50.972;7.856;2024-02-21T08:10:44;10.83;;;5.00;;
5555;SDS011;2801;50.972;7.856;2024-02-21T08:13:12;16.13;;;5.03;;
5555;SDS011;2801;50.972;7.856;2024-02-21T08:15:39;9.27;;;4.10;;
5555;SDS011;2801;50.972;7.856;2024-02-21T08:18:08;13.47;;;4.50;;
5555;SDS011;2801;50.972;7.856;2024-02-21T08:20:36;12.37;;;4.90;;
5555;SDS011;2801;50.972;7.856;2024-02-21T08:23:03;11.30;;;4.47;;
5555;SDS011;2801;50.972;7.856;2024-02-21T08:25:30;13.67;;;4.90;;
5555;SDS011;2801;50.972;7.856;2024-02-21T08:27:58;11.97;;;4.50;;
5555;SDS011;2801;50.972;7.856;2024-02-21T08:30:26;15.30;;;4.80;;
5555;SDS011;2801;50.972;7.856;2024-02-21T08:32:53;12.90;;;4.25;;
5555;SDS011;2801;50.972;7.856;2024-02-21T08:35:21;11.43;;;4.93;;
5555;SDS011;2801;50.972;7.856;2024-02-21T08:37:48;14.23;;;4.90;;
5555;SDS011;2801;50.972;7.856;2024-02-21T08:40:16;13.00;;;4.63;;
5555;SDS011;2801;50.972;7.856;2024-02-21T08:42:47;14.23;;;4.47;;
5555;SDS011;2801;50.972;7.856;2024-02-21T08:45:15;12.77;;;4.67;;
5555;SDS011;2801;50.972;7.856;2024-02-21T08:47:42;12.05;;;4.70;;
5555;SDS011;2801;50.972;7.856;2024-02-21T08:50:10;11.77;;;5.10;;
5555;SDS011;2801;50.972;7.856;2024-02-21T08:52:52;10.23;;;4.37;;
5555;SDS011;2801;50.972;7.856;2024-02-21T08:55:21;16.20;;;5.93;;
5555;SDS011;2801;50.972;7.856;2024-02-21T08:57:48;12.38;;;4.68;;
5555;SDS011;2801;50.972;7.856;2024-02-21T09:00:15;11.55;;;5.18;;
5555;SDS011;2801;50.972;7.856;2024-02-21T09:02:42;11.70;;;4.30;;
5555;SDS011;2801;50.972;7.856;2024-02-21T09:05:10;14.30;;;5.30;;
5555;SDS011;2801;50.972;7.856;2024-02-21T09:07:38;16.52;;;4.97;;
5555;SDS011;2801;50.972;7.856;2024-02-21T09:10:08;13.40;;;5.30;;
5555;SDS011;2801;50.972;7.856;2024-02-21T09:12:35;10.45;;;5.10;;
5555;SDS011;2801;50.972;7.856;2024-02-21T09:15:02;13.67;;;5.50;;
5555;SDS011;2801;50.972;7.856;2024-02-21T09:17:29;11.37;;;5.37;;
5555;SDS011;2801;50.972;7.856;2024-02-21T09:19:56;12.93;;;4.97;;
5555;SDS011;2801;50.972;7.856;2024-02-21T09:22:28;13.32;;;5.32;;
5555;SDS011;2801;50.972;7.856;2024-02-21T09:24:56;11.63;;;5.30;;
5555;SDS011;2801;50.972;7.856;2024-02-21T09:27:23;11.20;;;4.83;;
5555;SDS011;2801;50.972;7.856;2024-02-21T09:29:49;15.52;;;5.25;;
5555;SDS011;2801;50.972;7.856;2024-02-21T09:32:18;19.83;;;5.70;;
5555;SDS011;2801;50.972;7.856;2024-02-21T09:34:45;14.57;;;5.80;;
5555;SDS011;2801;50.972;7.856;2024-02-21T09:37:12;11.43;;;5.27;;
5555;SDS011;2801;50.972;7.856;2024-02-21T09:39:39;15.30;;;5.88;;
5555;SDS011;2801;50.972;7.856;2024-02-21T09:42:06;12.83;;;5.10;;
5555;SDS011;2801;50.972;7.856;2024-02-21T09:44:37;19.65;;;5.72;;
5555;SDS011;2801;50.972;7.856;2024-02-21T09:49:48;11.43;;;5.50;;
5555;SDS011;2801;50.972;7.856;2024-02-21T09:52:16;14.87;;;5.57;;
5555;SDS011;2801;50.972;7.856;2024-02-21T09:54:45;15.52;;;5.18;;
5555;SDS011;2801;50.972;7.856;2024-02-21T09:57:15;12.02;;;5.38;;
5555;SDS011;2801;50.972;7.856;2024-02-21T09:59:42;11.13;;;5.30;;
5555;SDS011;2801;50.972;7.856;2024-02-21T10:02:12;11.43;;;5.13;;
5555;SDS011;2801;50.972;7.856;2024-02-21T10:04:39;14.18;;;5.45;;
5555;SDS011;2801;50.972;7.856;2024-02-21T10:07:07;9.33;;;4.80;;
5555;SDS011;2801;50.972;7.856;2024-02-21T10:09:35;14.17;;;5.77;;
5555;SDS011;2801;50.972;7.856;2024-02-21T10:12:11;13.10;;;5.18;;
5555;SDS011;2801;50.972;7.856;2024-02-21T10:14:40;13.88;;;4.88;;
5555;SDS011;2801;50.972;7.856;2024-02-21T10:17:07;12.15;;;4.68;;
5555;SDS011;2801;50.972;7.856;2024-02-21T10:19:41;16.50;;;5.23;;
5555;SDS011;2801;50.972;7.856;2024-02-21T10:22:08;12.70;;;4.60;;
5555;SDS011;2801;50.972;7.856;2024-02-21T10:24:36;11.75;;;4.68;;
5555;SDS011;2801;50.972;7.856;2024-02-21T10:27:10;11.50;;;4.85;;
5555;SDS011;2801;50.972;7.856;2024-02-21T10:29:38;11.40;;;5.32;;
5555;SDS011;2801;50.972;7.856;2024-02-21T10:32:07;10.55;;;4.45;;
5555;SDS011;2801;50.972;7.856;2024-02-21T10:34:40;11.93;;;5.10;;
5555;SDS011;2801;50.972;7.856;2024-02-21T10:37:10;12.80;;;5.18;;
5555;SDS011;2801;50.972;7.856;2024-02-21T10:39:38;11.35;;;5.15;;
5555;SDS011;2801;50.972;7.856;2024-02-21T10:42:07;11.98;;;4.43;;
5555;SDS011;2801;50.972;7.856;2024-02-21T10:44:39;10.95;;;4.95;;
5555;SDS011;2801;50.972;7.856;2024-02-21T10:47:08;12.20;;;4.93;;
5555;SDS011;2801;50.972;7.856;2024-02-21T10:49:40;12.98;;;5.55;;
5555;SDS011;2801;50.972;7.856;2024-02-21T10:52:17;12.88;;;5.28;;
5555;SDS011;2801;50.972;7.856;2024-02-21T10:57:37;10.05;;;5.40;;
5555;SDS011;2801;50.972;7.856;2024-02-21T11:00:04;14.65;;;5.22;;
5555;SDS011;2801;50.972;7.856;2024-02-21T11:02:38;9.98;;;4.55;;
5555;SDS011;2801;50.972;7.856;2024-02-21T11:05:07;13.73;;;5.47;;
5555;SDS011;2801;50.972;7.856;2024-02-21T11:07:35;14.60;;;5.75;;
5555;SDS011;2801;50.972;7.856;2024-02-21T11:10:04;17.40;;;6.00;;
5555;SDS011;2801;50.972;7.856;2024-02-21T11:12:33;11.65;;;5.60;;
5555;SDS011;2801;50.972;7.856;2024-02-21T11:15:06;10.15;;;5.05;;
5555;SDS011;2801;50.972;7.856;2024-02-21T11:17:34;12.48;;;5.07;;
5555;SDS011;2801;50.972;7.856;2024-02-21T11:20:15;12.77;;;4.85;;
5555;SDS011;2801;50.972;7.856;2024-02-21T11:22:42;10.70;;;5.38;;
5555;SDS011;2801;50.972;7.856;2024-02-21T11:25:10;13.27;;;5.30;;
5555;SDS011;2801;50.972;7.856;2024-02-21T11:27:45;15.40;;;5.30;;
5555;SDS011;2801;50.972;7.856;2024-02-21T11:30:13;10.60;;;4.72;;
5555;SDS011;2801;50.972;7.856;2024-02-21T11:32:41;11.88;;;5.05;;
5555;SDS011;2801;50.972;7.856;2024-02-21T11:35:08;14.13;;;5.50;;
5555;SDS011;2801;50.972;7.856;2024-02-21T11:37:45;14.27;;;5.95;;
5555;SDS011;2801;50.972;7.856;2024-02-21T11:40:13;11.70;;;5.13;;
5555;SDS011;2801;50.972;7.856;2024-02-21T11:42:40;11.57;;;5.35;;
5555;SDS011;2801;50.972;7.856;2024-02-21T11:45:07;14.15;;;5.43;;
5555;SDS011;2801;50.972;7.856;2024-02-21T11:47:37;16.13;;;5.25;;
5555;SDS011;2801;50.972;7.856;2024-02-21T11:50:11;13.55;;;5.38;;
5555;SDS011;2801;50.972;7.856;2024-02-21T11:52:42;10.82;;;4.85;;
5555;SDS011;2801;50.972;7.856;2024-02-21T11:55:09;13.70;;;5.20;;
5555;SDS011;2801;50.972;7.856;2024-02-21T11:57:37;10.82;;;4.70;;
5555;SDS011;2801;50.972;7.856;2024-02-21T12:00:17;9.88;;;4.57;;
5555;SDS011;2801;50.972;7.856;2024-02-21T12:02:50;11.85;;;5.18;;
5555;SDS011;2801;50.972;7.856;2024-02-21T12:05:20;10.77;;;5.40;;
5555;SDS011;2801;50.972;7.856;2024-02-21T12:07:48;8.50;;;4.85;;
5555;SDS011;2801;50.972;7.856;2024-02-21T12:10:15;13.02;;;4.68;;
5555;SDS011;2801;50.972;7.856;2024-02-21T12:12:42;10.60;;;4.30;;
5555;SDS011;2801;50.972;7.856;2024-02-21T12:15:09;13.05;;;5.53;;
5555;SDS011;2801;50.972;7.856;2024-02-21T12:17:36;11.27;;;4.60;;
5555;SDS011;2801;50.972;7.856;2024-02-21T12:20:05;10.50;;;4.70;;
5555;SDS011;2801;50.972;7.856;2024-02-21T12:22:38;10.07;;;4.78;;
5555;SDS011;2801;50.972;7.856;2024-02-21T12:25:21;11.88;;;4.50;;
5555;SDS011;2801;50.972;7.856;2024-02-21T12:27:50;12.18;;;4.90;;
5555;SDS011;2801;50.972;7.856;2024-02-21T12:30:17;11.15;;;4.57;;
5555;SDS011;2801;50.972;7.856;2024-02-21T12:32:45;9.35;;;5.10;;
5555;SDS011;2801;50.972;7.856;2024-02-21T12:35:13;9.73;;;4.40;;
5555;SDS011;2801;50.972;7.856;2024-02-21T12:37:40;13.98;;;5.38;;
5555;SDS011;2801;50.972;7.856;2024-02-21T12:40:08;13.20;;;4.57;;
5555;SDS011;2801;50.972;7.856;2024-02-21T12:42:37;10.32;;;4.72;;
5555;SDS011;2801;50.972;7.856;2024-02-21T12:45:04;9.02;;;4.65;;
5555;SDS011;2801;50.972;7.856;2024-02-21T12:47:32;9.77;;;4.68;;
5555;SDS011;2801;50.972;7.856;2024-02-21T12:49:59;6.60;;;4.00;;
5555;SDS011;2801;50.972;7.856;2024-02-21T12:52:26;9.48;;;4.55;;
5555;SDS011;2801;50.972;7.856;2024-02-21T12:54:53;7.45;;;4.15;;
5555;SDS011;2801;50.972;7.856;2024-02-21T12:57:23;10.82;;;4.50;;
5555;SDS011;2801;50.972;7.856;2024-02-21T12:59:53;10.68;;;4.47;;
5555;SDS011;2801;50.972;7.856;2024-02-21T13:02:20;10.60;;;4.13;;
5555;SDS011;2801;50.972;7.856;2024-02-21T13:04:47;11.40;;;4.35;;
5555;SDS011;2801;50.972;7.856;2024-02-21T13:07:15;12.85;;;4.13;;
5555;SDS011;2801;50.972;7.856;2024-02-21T13:09:42;14.43;;;4.60;;
5555;SDS011;2801;50.972;7.856;2024-02-21T13:12:09;7.20;;;3.17;;
5555;SDS011;2801;50.972;7.856;2024-02-21T13:14:36;10.57;;;3.70;;
5555;SDS011;2801;50.972;7.856;2024-02-21T13:17:05;10.10;;;3.50;;
5555;SDS011;2801;50.972;7.856;2024-02-21T13:19:32;9.80;;;3.83;;
5555;SDS011;2801;50.972;7.856;2024-02-21T13:22:02;9.27;;;3.33;;
5555;SDS011;2801;50.972;7.856;2024-02-21T13:24:30;10.07;;;3.75;;
5555;SDS011;2801;50.972;7.856;2024-02-21T13:26:58;12.40;;;3.45;;
5555;SDS011;2801;50.972;7.856;2024-02-21T13:29:25;11.60;;;3.80;;
5555;SDS011;2801;50.972;7.856;2024-02-21T13:31:51;6.63;;;3.47;;
5555;SDS011;2801;50.972;7.856;2024-02-21T13:34:19;7.82;;;3.53;;
5555;SDS011;2801;50.972;7.856;2024-02-21T13:36:46;11.45;;;3.58;;
5555;SDS011;2801;50.972;7.856;2024-02-21T13:39:13;8.25;;;2.85;;
5555;SDS011;2801;50.972;7.856;2024-02-21T13:41:42;8.23;;;3.30;;
5555;SDS011;2801;50.972;7.856;2024-02-21T13:44:10;10.35;;;4.00;;
5555;SDS011;2801;50.972;7.856;2024-02-21T13:46:39;8.07;;;3.28;;
5555;SDS011;2801;50.972;7.856;2024-02-21T13:49:06;6.55;;;2.78;;
5555;SDS011;2801;50.972;7.856;2024-02-21T13:51:36;7.80;;;2.58;;
5555;SDS011;2801;50.972;7.856;2024-02-21T13:54:04;8.13;;;3.05;;
5555;SDS011;2801;50.972;7.856;2024-02-21T13:56:31;8.93;;;2.72;;
5555;SDS011;2801;50.972;7.856;2024-02-21T13:58:58;10.85;;;2.70;;
5555;SDS011;2801;50.972;7.856;2024-02-21T14:01:26;10.20;;;2.80;;
5555;SDS011;2801;50.972;7.856;2024-02-21T14:03:58;6.53;;;2.50;;
5555;SDS011;2801;50.972;7.856;2024-02-21T14:06:25;4.18;;;2.42;;
5555;SDS011;2801;50.972;7.856;2024-02-21T14:08:52;7.72;;;2.55;;
5555;SDS011;2801;50.972;7.856;2024-02-21T14:11:19;7.75;;;2.40;;
5555;SDS011;2801;50.972;7.856;2024-02-21T14:13:46;7.57;;;2.72;;
5555;SDS011;2801;50.972;7.856;2024-02-21T14:16:14;7.20;;;2.40;;
5555;SDS011;2801;50.972;7.856;2024-02-21T14:18:41;8.15;;;3.45;;
5555;SDS011;2801;50.972;7.856;2024-02-21T14:21:09;7.25;;;2.00;;
5555;SDS011;2801;50.972;7.856;2024-02-21T14:23:39;9.02;;;2.17;;
5555;SDS011;2801;50.972;7.856;2024-02-21T14:26:06;8.52;;;2.30;;
5555;SDS011;2801;50.972;7.856;2024-02-21T14:28:34;4.10;;;1.63;;
5555;SDS011;2801;50.972;7.856;2024-02-21T14:31:01;6.22;;;2.28;;
5555;SDS011;2801;50.972;7.856;2024-02-21T14:33:29;8.82;;;2.03;;
5555;SDS011;2801;50.972;7.856;2024-02-21T14:35:57;6.55;;;2.13;;
5555;SDS011;2801;50.972;7.856;2024-02-21T14:38:24;5.03;;;1.75;;
5555;SDS011;2801;50.972;7.856;2024-02-21T14:40:51;6.50;;;2.15;;
5555;SDS011;2801;50.972;7.856;2024-02-21T14:43:18;5.53;;;2.00;;
5555;SDS011;2801;50.972;7.856;2024-02-21T14:45:48;6.95;;;2.00;;
5555;SDS011;2801;50.972;7.856;2024-02-21T14:48:15;6.78;;;1.88;;
5555;SDS011;2801;50.972;7.856;2024-02-21T14:50:43;8.93;;;2.03;;
5555;SDS011;2801;50.972;7.856;2024-02-21T14:53:10;5.03;;;2.20;;
5555;SDS011;2801;50.972;7.856;2024-02-21T14:55:37;4.80;;;1.83;;
5555;SDS011;2801;50.972;7.856;2024-02-21T14:58:08;5.32;;;2.05;;
5555;SDS011;2801;50.972;7.856;2024-02-21T15:00:35;6.70;;;1.85;;
5555;SDS011;2801;50.972;7.856;2024-02-21T15:03:02;5.78;;;1.95;;
5555;SDS011;2801;50.972;7.856;2024-02-21T15:05:29;3.70;;;1.80;;
5555;SDS011;2801;50.972;7.856;2024-02-21T15:07:57;7.50;;;1.90;;
5555;SDS011;2801;50.972;7.856;2024-02-21T15:10:24;4.55;;;1.67;;
5555;SDS011;2801;50.972;7.856;2024-02-21T15:12:52;3.97;;;1.50;;